createdAt,value
2023-06-07T00:01:43.775Z,10.10
2023-06-07T00:04:31.557Z,7.63
2023-06-07T00:07:19.481Z,8.45
2023-06-07T00:10:05.702Z,9.25
2023-06-07T00:12:51.655Z,7.53
2023-06-07T00:15:37.605Z,11.82
2023-06-07T00:18:23.482Z,7.60
2023-06-07T00:21:09.437Z,7.82
2023-06-07T00:23:55.687Z,8.05
2023-06-07T00:26:41.565Z,10.55
2023-06-07T00:29:27.557Z,9.07
2023-06-07T00:32:13.973Z,7.35
2023-06-07T00:35:01.015Z,9.23
2023-06-07T00:37:47.320Z,8.30
2023-06-07T00:40:33.078Z,11.75
2023-06-07T00:43:19.375Z,10.57
2023-06-07T00:46:06.774Z,12.20
2023-06-07T00:48:53.406Z,8.65
2023-06-07T00:51:39.794Z,11.38
2023-06-07T00:54:26.028Z,10.63
2023-06-07T00:57:12.206Z,8.95
2023-06-07T00:59:58.063Z,11.57
2023-06-07T01:02:47.421Z,10.05
2023-06-07T01:05:33.800Z,12.13
2023-06-07T01:08:21.275Z,11.75
2023-06-07T01:11:07.226Z,13.23
2023-06-07T01:13:53.225Z,11.90
2023-06-07T01:16:41.430Z,9.95
2023-06-07T01:19:28.269Z,9.95
2023-06-07T01:22:16.232Z,11.07
2023-06-07T01:25:02.176Z,9.55
2023-06-07T01:27:51.432Z,9.20
2023-06-07T01:30:37.693Z,8.57
2023-06-07T01:33:24.163Z,10.07
2023-06-07T01:36:11.053Z,9.38
2023-06-07T01:38:57.748Z,15.55
2023-06-07T01:41:43.933Z,9.48
2023-06-07T01:44:31.180Z,10.88
2023-06-07T01:47:17.792Z,12.25
2023-06-07T01:50:03.916Z,9.43
2023-06-07T01:52:50.145Z,10.32
2023-06-07T01:55:37.149Z,10.68
2023-06-07T01:58:32.225Z,9.52
2023-06-07T02:01:31.167Z,11.05
2023-06-07T02:04:19.162Z,12.63
2023-06-07T02:07:07.132Z,10.38
2023-06-07T02:09:53.525Z,10.65
2023-06-07T02:12:40.136Z,14.13
2023-06-07T02:15:25.940Z,12.27
2023-06-07T02:18:12.858Z,11.50
2023-06-07T02:20:58.626Z,11.80
2023-06-07T02:23:44.592Z,13.68
2023-06-07T02:26:30.623Z,11.13
2023-06-07T02:29:17.262Z,11.68
2023-06-07T02:32:03.268Z,12.60
2023-06-07T02:34:49.787Z,10.95
2023-06-07T02:37:36.692Z,12.98
2023-06-07T02:40:22.946Z,12.70
2023-06-07T02:43:08.754Z,11.65
2023-06-07T02:45:54.674Z,13.20
2023-06-07T02:48:41.296Z,11.77
2023-06-07T02:51:27.513Z,13.45
2023-06-07T02:54:14.751Z,14.00
2023-06-07T02:57:00.625Z,14.38
2023-06-07T02:59:46.541Z,11.52
2023-06-07T03:02:39.304Z,13.90
2023-06-07T03:05:27.571Z,15.32
2023-06-07T03:08:16.640Z,16.25
2023-06-07T03:11:03.474Z,12.57
2023-06-07T03:13:54.271Z,17.00
2023-06-07T03:16:46.679Z,14.32
2023-06-07T03:19:34.084Z,16.85
2023-06-07T03:22:22.596Z,14.40
2023-06-07T03:25:10.157Z,13.18
2023-06-07T03:27:56.556Z,13.50
2023-06-07T03:30:51.111Z,15.38
2023-06-07T03:33:43.269Z,13.57
2023-06-07T03:36:32.468Z,14.25
2023-06-07T03:39:19.229Z,15.52
2023-06-07T03:42:06.505Z,14.93
2023-06-07T03:44:52.760Z,11.52
2023-06-07T03:47:41.276Z,14.95
2023-06-07T03:50:27.087Z,12.60
2023-06-07T03:53:13.006Z,14.05
2023-06-07T03:56:01.602Z,17.15
2023-06-07T03:58:51.476Z,15.82
2023-06-07T04:01:40.552Z,11.68
2023-06-07T04:04:29.042Z,14.90
2023-06-07T04:07:17.810Z,13.82
2023-06-07T04:10:04.577Z,15.02
2023-06-07T04:12:51.282Z,12.25
2023-06-07T04:15:37.323Z,16.73
2023-06-07T04:18:23.940Z,15.95
2023-06-07T04:21:11.299Z,14.57
2023-06-07T04:23:58.811Z,12.80
2023-06-07T04:26:48.721Z,12.27
2023-06-07T04:29:40.275Z,13.13
2023-06-07T04:32:26.471Z,13.32
2023-06-07T04:35:15.638Z,16.20
2023-06-07T04:38:04.360Z,15.70
2023-06-07T04:40:50.706Z,12.52
2023-06-07T04:43:49.951Z,17.85
2023-06-07T04:46:41.788Z,17.23
2023-06-07T04:49:34.425Z,14.95
2023-06-07T04:52:21.537Z,13.70
2023-06-07T04:55:16.282Z,17.05
2023-06-07T04:58:05.673Z,13.43
2023-06-07T05:00:52.586Z,14.50
2023-06-07T05:03:42.997Z,14.27
2023-06-07T05:06:30.277Z,18.65
2023-06-07T05:09:16.879Z,18.92
2023-06-07T05:12:03.611Z,16.67
2023-06-07T05:14:50.679Z,20.58
2023-06-07T05:17:37.590Z,20.15
2023-06-07T05:20:25.930Z,31.50
2023-06-07T05:23:19.047Z,19.15
2023-06-07T05:26:09.369Z,60.95
2023-06-07T05:28:55.167Z,31.80
2023-06-07T05:31:41.465Z,20.90
2023-06-07T05:34:27.332Z,36.10
2023-06-07T05:37:14.161Z,25.25
2023-06-07T05:40:00.277Z,20.08
2023-06-07T05:42:46.835Z,17.90
2023-06-07T05:45:33.179Z,18.25
2023-06-07T05:48:19.244Z,21.65
2023-06-07T05:51:08.274Z,17.98
2023-06-07T05:53:54.394Z,15.18
2023-06-07T05:56:40.195Z,46.15
2023-06-07T05:59:26.361Z,67.35
2023-06-07T06:02:14.728Z,88.38
2023-06-07T06:05:02.372Z,73.47
2023-06-07T06:07:48.302Z,16.35
2023-06-07T06:10:35.910Z,17.60
2023-06-07T06:13:22.024Z,20.13
2023-06-07T06:16:11.202Z,16.58
2023-06-07T06:18:58.601Z,21.25
2023-06-07T06:21:44.512Z,17.52
2023-06-07T06:24:30.664Z,18.88
2023-06-07T06:27:17.014Z,14.25
2023-06-07T06:30:03.181Z,16.95
2023-06-07T06:32:50.465Z,16.40
2023-06-07T06:35:38.892Z,16.13
2023-06-07T06:38:25.059Z,16.83
2023-06-07T06:41:11.476Z,15.57
2023-06-07T06:43:57.842Z,15.57
2023-06-07T06:46:43.956Z,15.20
2023-06-07T06:49:29.783Z,17.60
2023-06-07T06:52:15.656Z,16.00
2023-06-07T06:55:01.378Z,18.60
2023-06-07T06:57:47.243Z,19.80
2023-06-07T07:00:36.502Z,13.50
2023-06-07T07:03:23.114Z,13.60
2023-06-07T07:06:09.037Z,16.27
2023-06-07T07:08:55.412Z,13.25
2023-06-07T07:11:42.708Z,15.43
2023-06-07T07:14:28.604Z,14.38
2023-06-07T07:17:14.767Z,15.18
2023-06-07T07:20:00.856Z,13.95
2023-06-07T07:22:47.490Z,12.38
2023-06-07T07:25:33.841Z,13.07
2023-06-07T07:28:19.590Z,12.23
2023-06-07T07:31:05.531Z,15.00
2023-06-07T07:33:55.174Z,14.70
2023-06-07T07:36:40.984Z,12.73
2023-06-07T07:39:27.541Z,13.90
2023-06-07T07:42:14.230Z,16.35
2023-06-07T07:44:59.898Z,12.18
2023-06-07T07:47:46.521Z,12.68
2023-06-07T07:50:32.921Z,13.35
2023-06-07T07:53:19.275Z,13.10
2023-06-07T07:56:05.212Z,11.85
2023-06-07T07:58:51.534Z,14.30
2023-06-07T08:01:37.759Z,13.85
2023-06-07T08:04:23.768Z,15.07
2023-06-07T08:07:09.508Z,10.85
2023-06-07T08:09:55.323Z,13.23
2023-06-07T08:12:41.322Z,12.32
2023-06-07T08:15:27.258Z,12.18
2023-06-07T08:18:13.353Z,12.82
2023-06-07T08:20:59.280Z,14.52
2023-06-07T08:23:46.245Z,14.18
2023-06-07T08:26:32.588Z,11.68
2023-06-07T08:29:20.013Z,14.07
2023-06-07T08:32:08.773Z,11.65
2023-06-07T08:34:55.831Z,13.25
2023-06-07T08:37:42.824Z,13.40
2023-06-07T08:40:28.901Z,12.43
2023-06-07T08:43:15.065Z,13.85
2023-06-07T08:46:06.564Z,14.52
2023-06-07T08:48:53.812Z,15.95
2023-06-07T08:51:42.633Z,13.95
2023-06-07T08:54:29.128Z,11.57
2023-06-07T08:57:17.724Z,13.93
2023-06-07T09:00:08.417Z,13.00
2023-06-07T09:02:54.957Z,14.23
2023-06-07T09:05:40.619Z,13.18
2023-06-07T09:08:26.644Z,11.98
2023-06-07T09:11:12.436Z,13.25
2023-06-07T09:13:58.374Z,14.80
2023-06-07T09:16:54.669Z,16.55
2023-06-07T09:19:41.087Z,13.20
2023-06-07T09:22:27.143Z,15.85
2023-06-07T09:25:13.159Z,15.02
2023-06-07T09:27:59.369Z,18.02
2023-06-07T09:30:56.339Z,15.32
2023-06-07T09:33:47.469Z,14.90
2023-06-07T09:36:33.474Z,12.27
2023-06-07T09:39:26.436Z,12.27
2023-06-07T09:42:18.853Z,11.77
2023-06-07T09:45:12.210Z,12.73
2023-06-07T09:48:02.707Z,13.02
2023-06-07T09:51:01.180Z,14.80
2023-06-07T09:54:07.369Z,12.18
2023-06-07T09:56:53.188Z,16.13
2023-06-07T09:59:39.478Z,12.93
2023-06-07T10:02:29.762Z,11.10
2023-06-07T10:05:17.061Z,11.95
2023-06-07T10:08:03.811Z,12.80
2023-06-07T10:10:50.459Z,16.08
2023-06-07T10:13:37.796Z,13.57
2023-06-07T10:16:24.392Z,13.65
2023-06-07T10:19:19.093Z,16.17
2023-06-07T10:22:07.091Z,14.73
2023-06-07T10:25:03.396Z,12.85
2023-06-07T10:28:08.366Z,12.45
2023-06-07T10:30:58.650Z,13.15
2023-06-07T10:33:44.876Z,12.32
2023-06-07T10:36:31.377Z,14.05
2023-06-07T10:39:17.210Z,12.65
2023-06-07T10:42:03.041Z,13.68
2023-06-07T10:44:48.963Z,14.65
2023-06-07T10:47:35.055Z,14.07
2023-06-07T10:50:32.899Z,13.43
2023-06-07T10:53:19.149Z,11.77
2023-06-07T10:56:27.708Z,15.10
2023-06-07T10:59:16.677Z,11.88
2023-06-07T11:02:23.290Z,10.93
2023-06-07T11:05:09.851Z,14.57
2023-06-07T11:08:17.019Z,13.05
2023-06-07T11:11:03.437Z,15.30
2023-06-07T11:13:55.774Z,15.07
2023-06-07T11:16:42.154Z,12.43
2023-06-07T11:19:48.294Z,14.13
2023-06-07T11:22:34.542Z,16.27
2023-06-07T11:25:20.448Z,13.63
2023-06-07T11:28:06.936Z,13.50
2023-06-07T11:30:53.373Z,11.55
2023-06-07T11:33:39.707Z,14.18
2023-06-07T11:36:26.063Z,12.00
2023-06-07T11:39:17.718Z,13.70
2023-06-07T11:42:04.439Z,13.93
2023-06-07T11:44:50.372Z,14.65
2023-06-07T11:47:36.343Z,15.13
2023-06-07T11:50:22.233Z,14.02
2023-06-07T11:53:13.449Z,13.70
2023-06-07T11:56:00.203Z,13.98
2023-06-07T11:58:46.143Z,11.35
2023-06-07T12:01:32.999Z,12.23
2023-06-07T12:04:19.714Z,15.43
2023-06-07T12:07:18.437Z,13.02
2023-06-07T12:10:05.240Z,12.68
2023-06-07T12:13:12.762Z,12.75
2023-06-07T12:15:59.805Z,15.80
2023-06-07T12:18:45.932Z,12.70
2023-06-07T12:21:31.892Z,13.57
2023-06-07T12:24:17.959Z,14.85
2023-06-07T12:27:06.261Z,13.60
2023-06-07T12:29:55.077Z,12.38
2023-06-07T12:32:41.225Z,14.45
2023-06-07T12:35:27.048Z,15.90
2023-06-07T12:38:13.490Z,12.52
2023-06-07T12:40:59.341Z,13.82
2023-06-07T12:43:48.857Z,16.48
2023-06-07T12:46:35.065Z,12.18
2023-06-07T12:49:20.816Z,14.05
2023-06-07T12:52:06.689Z,12.20
2023-06-07T12:54:52.731Z,14.55
2023-06-07T12:57:38.680Z,14.50
2023-06-07T13:00:24.765Z,12.75
2023-06-07T13:03:10.841Z,10.32
2023-06-07T13:05:56.916Z,9.15
2023-06-07T13:08:44.720Z,8.98
2023-06-07T13:11:30.526Z,11.82
2023-06-07T13:14:16.493Z,10.00
2023-06-07T13:17:02.478Z,8.65
2023-06-07T13:19:48.574Z,7.38
2023-06-07T13:22:34.665Z,7.47
2023-06-07T13:25:21.139Z,6.75
2023-06-07T13:28:07.290Z,7.25
2023-06-07T13:30:53.300Z,6.28
2023-06-07T13:33:39.262Z,8.75
2023-06-07T13:36:25.901Z,6.85
2023-06-07T13:39:12.001Z,8.82
2023-06-07T13:41:57.824Z,6.70
2023-06-07T13:44:44.879Z,6.72
2023-06-07T13:47:32.088Z,6.20
2023-06-07T13:50:18.535Z,6.40
2023-06-07T13:53:04.641Z,5.38
2023-06-07T13:55:51.070Z,6.95
2023-06-07T13:58:37.984Z,5.57
2023-06-07T14:01:23.963Z,7.78
2023-06-07T14:04:09.751Z,6.65
2023-06-07T14:06:56.117Z,5.13
2023-06-07T14:09:42.045Z,6.95
2023-06-07T14:12:27.852Z,5.72
2023-06-07T14:15:13.701Z,4.78
2023-06-07T14:17:59.589Z,6.43
2023-06-07T14:20:45.723Z,5.28
2023-06-07T14:23:31.849Z,5.30
2023-06-07T14:26:17.565Z,9.40
2023-06-07T14:29:03.449Z,6.88
2023-06-07T14:31:49.378Z,6.72
2023-06-07T14:34:35.142Z,5.50
2023-06-07T14:37:21.195Z,5.53
2023-06-07T14:40:07.679Z,5.53
2023-06-07T14:42:53.621Z,6.72
2023-06-07T14:45:39.464Z,6.63
2023-06-07T14:48:25.383Z,9.30
2023-06-07T14:51:11.261Z,9.30
2023-06-07T14:53:57.750Z,6.93
2023-06-07T14:56:43.666Z,5.90
2023-06-07T14:59:29.661Z,6.85
2023-06-07T15:02:16.005Z,5.32
2023-06-07T15:05:02.038Z,7.35
2023-06-07T15:07:48.011Z,5.18
2023-06-07T15:10:34.378Z,5.28
2023-06-07T15:13:20.833Z,7.60
2023-06-07T15:16:06.842Z,5.68
2023-06-07T15:18:52.471Z,5.70
2023-06-07T15:21:38.496Z,7.90
2023-06-07T15:24:24.495Z,5.93
2023-06-07T15:27:10.266Z,5.28
2023-06-07T15:29:56.131Z,6.22
2023-06-07T15:32:42.226Z,5.80
2023-06-07T15:35:28.287Z,6.80
2023-06-07T15:38:14.529Z,8.30
2023-06-07T15:41:00.473Z,6.28
2023-06-07T15:43:47.079Z,7.82
2023-06-07T15:46:33.593Z,6.00
2023-06-07T15:49:19.640Z,6.95
2023-06-07T15:52:05.887Z,6.45
2023-06-07T15:54:51.744Z,6.00
2023-06-07T15:57:37.544Z,8.93
2023-06-07T16:00:36.729Z,6.75
2023-06-07T16:03:24.182Z,7.68
2023-06-07T16:06:11.926Z,7.82
2023-06-07T16:09:03.744Z,5.88
2023-06-07T16:11:49.953Z,6.05
2023-06-07T16:14:36.495Z,8.02
2023-06-07T16:17:22.676Z,6.57
2023-06-07T16:20:08.919Z,6.95
2023-06-07T16:22:54.564Z,14.82
2023-06-07T16:25:40.709Z,7.25
2023-06-07T16:28:26.779Z,7.30
2023-06-07T16:31:12.668Z,7.80
2023-06-07T16:33:59.554Z,7.35
2023-06-07T16:36:45.732Z,6.97
2023-06-07T16:39:31.701Z,10.07
2023-06-07T16:42:17.711Z,9.52
2023-06-07T16:45:03.573Z,6.95
2023-06-07T16:47:49.594Z,6.50
2023-06-07T16:50:35.411Z,5.63
2023-06-07T16:53:21.162Z,5.90
2023-06-07T16:56:07.398Z,7.05
2023-06-07T16:58:53.024Z,8.98
2023-06-07T17:01:40.589Z,10.32
2023-06-07T17:04:26.811Z,6.90
2023-06-07T17:07:12.806Z,5.97
2023-06-07T17:09:58.767Z,7.63
2023-06-07T17:12:44.706Z,6.18
2023-06-07T17:15:30.629Z,6.10
2023-06-07T17:18:16.774Z,6.10
2023-06-07T17:21:02.938Z,5.75
2023-06-07T17:23:48.942Z,6.20
2023-06-07T17:26:35.405Z,5.88
2023-06-07T17:29:30.130Z,8.25
2023-06-07T17:32:16.917Z,7.68
2023-06-07T17:35:02.653Z,6.82
2023-06-07T17:37:48.708Z,6.43
2023-06-07T17:40:34.659Z,9.18
2023-06-07T17:43:20.584Z,7.15
2023-06-07T17:46:08.525Z,7.80
2023-06-07T17:48:54.344Z,6.60
2023-06-07T17:51:42.485Z,8.65
2023-06-07T17:54:28.636Z,6.60
2023-06-07T17:57:14.675Z,6.32
2023-06-07T18:00:00.785Z,6.45
2023-06-07T18:02:46.706Z,7.78
2023-06-07T18:05:32.527Z,6.80
2023-06-07T18:08:18.487Z,8.05
2023-06-07T18:11:04.524Z,6.57
2023-06-07T18:13:50.466Z,7.78
2023-06-07T18:16:36.575Z,20.02
2023-06-07T18:19:22.272Z,10.73
2023-06-07T18:22:08.178Z,6.97
2023-06-07T18:24:54.152Z,8.13
2023-06-07T18:27:40.095Z,6.78
2023-06-07T18:30:27.130Z,9.40
2023-06-07T18:33:13.623Z,7.75
2023-06-07T18:35:59.426Z,8.45
2023-06-07T18:38:45.291Z,7.03
2023-06-07T18:41:31.666Z,7.55
2023-06-07T18:44:17.439Z,6.40
2023-06-07T18:47:03.496Z,7.85
2023-06-07T18:49:49.264Z,7.55
2023-06-07T18:52:36.433Z,8.85
2023-06-07T18:55:22.712Z,10.32
2023-06-07T18:58:09.206Z,9.07
2023-06-07T19:00:55.266Z,9.70
2023-06-07T19:03:41.363Z,11.82
2023-06-07T19:06:26.965Z,8.00
2023-06-07T19:09:13.147Z,8.20
2023-06-07T19:11:59.759Z,7.97
2023-06-07T19:14:45.823Z,7.82
2023-06-07T19:17:31.716Z,8.73
2023-06-07T19:20:18.784Z,7.45
2023-06-07T19:23:04.692Z,7.63
2023-06-07T19:25:50.507Z,9.02
2023-06-07T19:28:36.419Z,7.88
2023-06-07T19:31:22.283Z,8.35
2023-06-07T19:34:09.146Z,7.78
2023-06-07T19:36:54.915Z,10.75
2023-06-07T19:39:40.859Z,7.63
2023-06-07T19:42:27.348Z,8.98
2023-06-07T19:45:13.576Z,9.13
2023-06-07T19:47:59.687Z,10.55
2023-06-07T19:50:45.734Z,10.77
2023-06-07T19:53:31.858Z,8.18
2023-06-07T19:56:17.744Z,9.27
2023-06-07T19:59:03.714Z,8.80
2023-06-07T20:01:50.719Z,8.73
2023-06-07T20:04:36.945Z,9.02
2023-06-07T20:07:22.803Z,9.10
2023-06-07T20:10:09.355Z,8.63
2023-06-07T20:12:55.275Z,8.05
2023-06-07T20:15:41.317Z,8.23
2023-06-07T20:18:27.399Z,8.60
2023-06-07T20:21:13.132Z,9.68
2023-06-07T20:23:59.429Z,8.27
2023-06-07T20:26:48.012Z,8.00
2023-06-07T20:29:34.043Z,8.10
2023-06-07T20:32:20.271Z,10.13
2023-06-07T20:35:07.002Z,8.30
2023-06-07T20:37:53.574Z,8.10
2023-06-07T20:40:39.449Z,9.43
2023-06-07T20:43:25.690Z,7.93
2023-06-07T20:46:12.093Z,10.23
2023-06-07T20:48:58.742Z,11.13
2023-06-07T20:51:45.060Z,9.43
2023-06-07T20:54:30.928Z,9.45
2023-06-07T20:57:16.795Z,12.20
2023-06-07T21:00:04.947Z,9.38
2023-06-07T21:02:51.238Z,8.40
2023-06-07T21:05:37.097Z,8.75
2023-06-07T21:08:22.915Z,8.02
2023-06-07T21:11:08.885Z,10.20
2023-06-07T21:13:54.838Z,8.52
2023-06-07T21:16:40.717Z,9.10
2023-06-07T21:19:26.527Z,7.80
2023-06-07T21:22:12.596Z,8.38
2023-06-07T21:24:58.456Z,8.35
2023-06-07T21:27:44.540Z,7.90
2023-06-07T21:30:31.412Z,10.23
2023-06-07T21:33:19.779Z,9.20
2023-06-07T21:36:06.045Z,8.63
2023-06-07T21:38:52.014Z,10.35
2023-06-07T21:41:37.976Z,9.75
2023-06-07T21:44:24.917Z,7.95
2023-06-07T21:47:10.682Z,10.05
2023-06-07T21:50:00.641Z,10.30
2023-06-07T21:52:47.542Z,10.75
2023-06-07T21:55:33.733Z,8.55
2023-06-07T21:58:19.499Z,9.20
2023-06-07T22:01:05.875Z,8.45
2023-06-07T22:03:51.952Z,8.02
2023-06-07T22:06:37.906Z,8.52
2023-06-07T22:09:23.916Z,9.25
2023-06-07T22:12:12.811Z,8.55
2023-06-07T22:15:01.621Z,8.20
2023-06-07T22:17:47.936Z,13.10
2023-06-07T22:20:37.828Z,8.25
2023-06-07T22:23:23.716Z,9.40
2023-06-07T22:26:09.555Z,10.88
2023-06-07T22:29:01.126Z,8.23
2023-06-07T22:31:47.865Z,11.18
2023-06-07T22:34:34.188Z,8.00
2023-06-07T22:37:22.288Z,8.30
2023-06-07T22:40:10.501Z,11.32
2023-06-07T22:42:56.944Z,8.68
2023-06-07T22:45:42.784Z,8.13
2023-06-07T22:48:29.906Z,9.35
2023-06-07T22:51:18.885Z,9.65
2023-06-07T22:54:05.159Z,8.45
2023-06-07T22:56:51.440Z,9.65
2023-06-07T22:59:37.915Z,9.48
2023-06-07T23:02:24.168Z,10.43
2023-06-07T23:05:10.081Z,10.55
2023-06-07T23:07:56.583Z,9.93
2023-06-07T23:10:45.093Z,9.30
2023-06-07T23:13:30.965Z,10.23
2023-06-07T23:16:18.048Z,9.68
2023-06-07T23:19:04.944Z,8.25
2023-06-07T23:21:51.004Z,11.20
2023-06-07T23:24:37.256Z,8.57
2023-06-07T23:27:23.039Z,10.18
2023-06-07T23:30:09.787Z,9.13
2023-06-07T23:32:56.202Z,8.40
2023-06-07T23:35:44.693Z,8.10
2023-06-07T23:38:30.496Z,8.55
2023-06-07T23:41:16.464Z,8.70
2023-06-07T23:44:02.383Z,12.50
2023-06-07T23:46:48.414Z,12.20
2023-06-07T23:49:36.165Z,9.35
2023-06-07T23:52:22.167Z,8.45
2023-06-07T23:55:08.459Z,7.57
2023-06-07T23:57:54.547Z,9.23
